createdAt,value
2023-03-06T00:00:33.741Z,16.65
2023-03-06T00:03:01.113Z,14.45
2023-03-06T00:05:28.564Z,16.88
2023-03-06T00:07:55.281Z,19.30
2023-03-06T00:10:28.038Z,19.42
2023-03-06T00:12:57.176Z,19.25
2023-03-06T00:15:26.379Z,16.55
2023-03-06T00:17:53.707Z,16.55
2023-03-06T00:20:21.627Z,15.82
2023-03-06T00:22:49.514Z,16.42
2023-03-06T00:25:19.135Z,20.75
2023-03-06T00:27:46.075Z,18.52
2023-03-06T00:30:15.586Z,19.42
2023-03-06T00:32:42.811Z,16.98
2023-03-06T00:35:09.617Z,17.95
2023-03-06T00:37:36.284Z,17.35
2023-03-06T00:40:05.905Z,16.25
2023-03-06T00:42:32.475Z,17.90
2023-03-06T00:44:58.995Z,14.68
2023-03-06T00:47:25.525Z,18.63
2023-03-06T00:49:52.079Z,19.02
2023-03-06T00:52:18.835Z,17.55
2023-03-06T00:54:45.494Z,17.17
2023-03-06T00:57:12.467Z,18.23
2023-03-06T00:59:38.977Z,18.15
2023-03-06T01:02:05.840Z,16.77
2023-03-06T01:04:32.526Z,17.98
2023-03-06T01:06:59.238Z,15.93
2023-03-06T01:09:25.836Z,17.25
2023-03-06T01:11:53.908Z,15.27
2023-03-06T01:14:20.472Z,13.82
2023-03-06T01:16:47.905Z,14.20
2023-03-06T01:19:17.462Z,15.43
2023-03-06T01:21:45.057Z,15.00
2023-03-06T01:24:11.585Z,18.42
2023-03-06T01:26:38.189Z,14.15
2023-03-06T01:29:04.789Z,16.52
2023-03-06T01:31:32.236Z,14.80
2023-03-06T01:33:58.813Z,17.95
2023-03-06T01:36:25.359Z,14.90
2023-03-06T01:38:51.942Z,14.25
2023-03-06T01:41:21.102Z,16.25
2023-03-06T01:43:48.203Z,16.35
2023-03-06T01:46:37.962Z,17.08
2023-03-06T01:49:14.311Z,19.63
2023-03-06T01:51:48.202Z,19.30
2023-03-06T01:54:21.244Z,21.80
2023-03-06T01:56:51.064Z,16.98
2023-03-06T01:59:19.814Z,18.13
2023-03-06T02:01:47.060Z,19.85
2023-03-06T02:04:14.302Z,18.38
2023-03-06T02:06:43.310Z,16.85
2023-03-06T02:09:11.045Z,19.98
2023-03-06T02:11:38.289Z,18.30
2023-03-06T02:14:05.112Z,17.77
2023-03-06T02:16:33.154Z,19.13
2023-03-06T02:19:02.130Z,18.95
2023-03-06T02:21:34.161Z,19.48
2023-03-06T02:24:44.158Z,23.77
2023-03-06T02:27:14.259Z,20.73
2023-03-06T02:29:41.270Z,17.55
2023-03-06T02:32:08.206Z,16.98
2023-03-06T02:34:37.759Z,17.15
2023-03-06T02:37:10.438Z,22.88
2023-03-06T02:39:44.245Z,17.38
2023-03-06T02:42:17.814Z,21.67
2023-03-06T02:44:44.552Z,22.63
2023-03-06T02:47:11.117Z,21.38
2023-03-06T02:49:37.852Z,20.10
2023-03-06T02:52:06.745Z,21.92
2023-03-06T02:54:33.473Z,23.02
2023-03-06T02:57:00.090Z,19.77
2023-03-06T02:59:26.716Z,18.42
2023-03-06T03:01:53.692Z,19.17
2023-03-06T03:04:20.408Z,20.95
2023-03-06T03:06:47.322Z,19.08
2023-03-06T03:09:14.250Z,22.30
2023-03-06T03:11:40.782Z,19.88
2023-03-06T03:14:07.546Z,16.45
2023-03-06T03:16:34.163Z,16.55
2023-03-06T03:19:00.681Z,14.98
2023-03-06T03:21:27.642Z,15.32
2023-03-06T03:23:55.182Z,20.67
2023-03-06T03:26:22.691Z,23.92
2023-03-06T03:29:04.637Z,23.85
2023-03-06T03:31:32.665Z,22.42
2023-03-06T03:34:00.679Z,20.20
2023-03-06T03:36:29.292Z,22.35
2023-03-06T03:38:57.660Z,23.52
2023-03-06T03:41:24.455Z,23.48
2023-03-06T03:43:52.024Z,24.42
2023-03-06T03:46:21.491Z,25.55
2023-03-06T03:48:49.111Z,23.75
2023-03-06T03:51:16.611Z,21.88
2023-03-06T03:53:47.127Z,27.00
2023-03-06T03:56:17.747Z,25.77
2023-03-06T03:58:53.872Z,23.90
2023-03-06T04:01:21.356Z,23.08
2023-03-06T04:03:47.972Z,15.52
2023-03-06T04:06:16.573Z,20.88
2023-03-06T04:08:45.761Z,18.25
2023-03-06T04:11:12.463Z,15.30
2023-03-06T04:13:39.514Z,15.63
2023-03-06T04:16:06.412Z,13.55
2023-03-06T04:18:35.006Z,14.57
2023-03-06T04:21:04.877Z,12.43
2023-03-06T04:23:31.791Z,13.20
2023-03-06T04:25:58.550Z,10.60
2023-03-06T04:28:25.451Z,15.52
2023-03-06T04:30:52.354Z,21.30
2023-03-06T04:33:20.145Z,29.42
2023-03-06T04:35:46.896Z,32.75
2023-03-06T04:38:19.167Z,28.60
2023-03-06T04:40:45.754Z,32.42
2023-03-06T04:43:12.406Z,26.88
2023-03-06T04:45:39.092Z,25.60
2023-03-06T04:48:06.022Z,21.95
2023-03-06T04:50:33.244Z,20.98
2023-03-06T04:53:01.673Z,24.80
2023-03-06T04:55:28.849Z,19.10
2023-03-06T04:57:56.151Z,16.65
2023-03-06T05:00:25.530Z,23.27
2023-03-06T05:02:52.505Z,19.65
2023-03-06T05:05:19.301Z,21.70
2023-03-06T05:07:45.823Z,16.48
2023-03-06T05:10:14.872Z,16.83
2023-03-06T05:12:41.724Z,14.45
2023-03-06T05:15:08.787Z,13.75
2023-03-06T05:17:35.398Z,19.75
2023-03-06T05:20:02.037Z,16.70
2023-03-06T05:22:28.573Z,21.58
2023-03-06T05:24:55.095Z,19.40
2023-03-06T05:27:21.709Z,22.75
2023-03-06T05:29:48.302Z,25.42
2023-03-06T05:32:16.929Z,21.75
2023-03-06T05:34:43.530Z,28.90
2023-03-06T05:37:10.080Z,26.83
2023-03-06T05:39:37.226Z,24.85
2023-03-06T05:42:03.879Z,22.23
2023-03-06T05:44:34.698Z,21.85
2023-03-06T05:47:01.685Z,22.25
2023-03-06T05:49:32.674Z,23.55
2023-03-06T05:51:59.725Z,21.17
2023-03-06T05:54:26.694Z,20.65
2023-03-06T05:56:53.561Z,19.70
2023-03-06T05:59:20.089Z,14.98
2023-03-06T06:01:46.627Z,18.17
2023-03-06T06:04:13.194Z,20.10
2023-03-06T06:06:39.710Z,18.25
2023-03-06T06:09:06.210Z,17.85
2023-03-06T06:11:32.770Z,16.73
2023-03-06T06:13:59.349Z,15.43
2023-03-06T06:16:25.881Z,20.80
2023-03-06T06:18:52.516Z,17.83
2023-03-06T06:21:19.863Z,19.17
2023-03-06T06:23:46.426Z,19.48
2023-03-06T06:26:13.024Z,18.70
2023-03-06T06:28:39.643Z,15.45
2023-03-06T06:31:12.234Z,21.23
2023-03-06T06:33:39.611Z,21.15
2023-03-06T06:36:14.250Z,20.67
2023-03-06T06:38:40.796Z,19.52
2023-03-06T06:41:46.632Z,20.38
2023-03-06T06:43:53.905Z,17.70
2023-03-06T06:47:02.718Z,18.73
2023-03-06T06:49:07.405Z,18.88
2023-03-06T06:51:34.129Z,16.52
2023-03-06T06:54:01.195Z,21.48
2023-03-06T06:56:27.725Z,20.25
2023-03-06T06:59:01.330Z,20.70
2023-03-06T07:01:37.059Z,20.83
2023-03-06T07:04:03.935Z,23.88
2023-03-06T07:06:30.539Z,22.50
2023-03-06T07:08:57.555Z,21.70
2023-03-06T07:11:24.111Z,21.83
2023-03-06T07:13:50.745Z,24.40
2023-03-06T07:16:17.755Z,20.30
2023-03-06T07:18:45.328Z,22.00
2023-03-06T07:21:12.151Z,19.98
2023-03-06T07:23:38.752Z,20.83
2023-03-06T07:26:05.353Z,22.50
2023-03-06T07:28:46.132Z,26.52
2023-03-06T07:31:18.436Z,21.80
2023-03-06T07:33:45.054Z,25.30
2023-03-06T07:36:13.566Z,24.95
2023-03-06T07:38:40.547Z,23.70
2023-03-06T07:41:13.100Z,29.98
2023-03-06T07:43:41.265Z,27.23
2023-03-06T07:46:08.073Z,27.52
2023-03-06T07:48:35.594Z,26.75
2023-03-06T07:51:05.554Z,27.73
2023-03-06T07:53:33.681Z,38.63
2023-03-06T07:56:00.536Z,26.20
2023-03-06T07:58:27.406Z,26.98
2023-03-06T08:00:53.971Z,30.45
2023-03-06T08:03:20.599Z,24.38
2023-03-06T08:05:47.168Z,24.58
2023-03-06T08:08:13.742Z,28.63
2023-03-06T08:10:40.315Z,26.90
2023-03-06T08:13:06.881Z,25.48
2023-03-06T08:15:33.391Z,25.42
2023-03-06T08:18:00.029Z,23.15
2023-03-06T08:20:26.644Z,23.52
2023-03-06T08:22:53.241Z,23.38
2023-03-06T08:25:19.813Z,20.83
2023-03-06T08:27:47.414Z,23.48
2023-03-06T08:30:14.675Z,23.85
2023-03-06T08:32:41.327Z,22.23
2023-03-06T08:35:08.393Z,24.42
2023-03-06T08:37:35.164Z,20.95
2023-03-06T08:40:04.483Z,22.38
2023-03-06T08:42:31.895Z,22.23
2023-03-06T08:44:58.526Z,21.13
2023-03-06T08:47:25.161Z,18.92
2023-03-06T08:49:51.713Z,17.10
2023-03-06T08:52:19.833Z,17.95
2023-03-06T08:54:46.557Z,19.80
2023-03-06T08:57:13.095Z,23.67
2023-03-06T08:59:39.671Z,23.13
2023-03-06T09:02:07.570Z,19.55
2023-03-06T09:04:34.397Z,20.10
2023-03-06T09:07:01.267Z,21.10
2023-03-06T09:09:27.861Z,20.20
2023-03-06T09:11:54.951Z,19.63
2023-03-06T09:14:21.544Z,24.60
2023-03-06T09:16:48.193Z,19.83
2023-03-06T09:19:14.743Z,16.25
2023-03-06T09:21:41.370Z,15.43
2023-03-06T09:24:08.347Z,18.08
2023-03-06T09:26:51.684Z,16.50
2023-03-06T09:29:18.628Z,14.75
2023-03-06T09:31:45.589Z,14.73
2023-03-06T09:34:12.240Z,13.65
2023-03-06T09:36:54.930Z,15.93
2023-03-06T09:39:23.064Z,11.63
2023-03-06T09:41:50.117Z,15.63
2023-03-06T09:44:29.228Z,18.50
2023-03-06T09:47:10.572Z,15.68
2023-03-06T09:50:02.084Z,14.25
2023-03-06T09:52:31.709Z,13.90
2023-03-06T09:55:12.825Z,14.80
2023-03-06T09:57:58.631Z,17.83
2023-03-06T10:00:34.718Z,16.38
2023-03-06T10:03:21.448Z,17.75
2023-03-06T10:05:55.079Z,19.42
2023-03-06T10:08:25.091Z,13.20
2023-03-06T10:10:59.584Z,16.17
2023-03-06T10:13:35.239Z,15.35
2023-03-06T10:16:27.032Z,17.85
2023-03-06T10:19:04.909Z,16.30
2023-03-06T10:22:13.711Z,14.80
2023-03-06T10:24:58.984Z,14.60
2023-03-06T10:27:42.794Z,15.88
2023-03-06T10:30:33.920Z,16.85
2023-03-06T10:33:26.925Z,15.97
2023-03-06T10:35:55.420Z,13.55
2023-03-06T10:38:26.531Z,16.23
2023-03-06T10:41:16.384Z,15.75
2023-03-06T10:44:06.698Z,15.27
2023-03-06T10:46:35.165Z,12.90
2023-03-06T10:49:05.334Z,13.07
2023-03-06T10:51:34.033Z,13.07
2023-03-06T10:54:19.245Z,10.88
2023-03-06T10:56:47.430Z,11.60
2023-03-06T10:59:28.313Z,11.23
2023-03-06T11:02:16.388Z,13.30
2023-03-06T11:04:51.009Z,9.88
2023-03-06T11:07:26.182Z,12.25
2023-03-06T11:09:58.727Z,11.23
2023-03-06T11:12:27.600Z,10.60
2023-03-06T11:15:27.157Z,10.00
2023-03-06T11:18:08.703Z,9.27
2023-03-06T11:20:51.938Z,13.38
2023-03-06T11:23:37.456Z,11.57
2023-03-06T11:26:15.410Z,10.93
2023-03-06T11:28:58.939Z,11.45
2023-03-06T11:31:34.583Z,9.65
2023-03-06T11:34:05.115Z,9.75
2023-03-06T11:36:55.277Z,11.27
2023-03-06T11:39:53.309Z,11.90
2023-03-06T11:42:42.558Z,10.25
2023-03-06T11:45:26.546Z,8.75
2023-03-06T11:48:01.712Z,8.90
2023-03-06T11:50:44.739Z,8.63
2023-03-06T11:53:18.426Z,8.85
2023-03-06T11:56:03.465Z,8.45
2023-03-06T11:59:07.740Z,8.00
2023-03-06T12:01:47.235Z,8.02
2023-03-06T12:04:34.838Z,6.88
2023-03-06T12:07:30.381Z,8.88
2023-03-06T12:10:23.302Z,8.52
2023-03-06T12:13:20.398Z,7.57
2023-03-06T12:16:25.174Z,9.88
2023-03-06T12:19:33.866Z,10.00
2023-03-06T12:22:12.463Z,7.50
2023-03-06T12:24:38.947Z,7.30
2023-03-06T12:27:34.735Z,8.00
2023-03-06T12:30:04.204Z,9.05
2023-03-06T12:32:57.559Z,8.77
2023-03-06T12:35:45.449Z,8.90
2023-03-06T12:38:33.873Z,8.95
2023-03-06T12:41:22.949Z,9.30
2023-03-06T12:44:01.259Z,8.88
2023-03-06T12:46:30.446Z,10.10
2023-03-06T12:49:10.289Z,11.35
2023-03-06T12:51:39.841Z,9.85
2023-03-06T12:54:07.280Z,9.35
2023-03-06T12:56:35.333Z,8.40
2023-03-06T12:59:02.569Z,11.77
2023-03-06T13:01:56.332Z,23.00
2023-03-06T13:04:51.947Z,14.95
2023-03-06T13:07:36.762Z,10.43
2023-03-06T13:10:18.757Z,8.23
2023-03-06T13:12:55.966Z,8.68
2023-03-06T13:15:41.995Z,11.50
2023-03-06T13:18:34.651Z,9.70
2023-03-06T13:21:01.319Z,9.90
2023-03-06T13:23:33.999Z,10.32
2023-03-06T13:26:25.369Z,9.43
2023-03-06T13:28:54.416Z,8.77
2023-03-06T13:31:36.455Z,10.57
2023-03-06T13:34:24.837Z,8.73
2023-03-06T13:36:51.744Z,9.85
2023-03-06T13:39:18.341Z,7.55
2023-03-06T13:41:57.573Z,9.15
2023-03-06T13:44:24.297Z,8.30
2023-03-06T13:47:04.799Z,8.25
2023-03-06T13:49:33.304Z,9.20
2023-03-06T13:52:11.012Z,7.90
2023-03-06T13:54:43.338Z,10.07
2023-03-06T13:57:26.203Z,8.55
2023-03-06T14:00:14.406Z,9.40
2023-03-06T14:03:33.842Z,8.85
2023-03-06T14:06:00.660Z,8.48
2023-03-06T14:08:30.265Z,9.13
2023-03-06T14:11:02.748Z,8.77
2023-03-06T14:13:46.575Z,10.30
2023-03-06T14:16:48.918Z,9.52
2023-03-06T14:19:18.681Z,10.50
2023-03-06T14:21:45.210Z,12.75
2023-03-06T14:24:17.485Z,8.18
2023-03-06T14:26:48.505Z,9.40
2023-03-06T14:29:25.887Z,10.77
2023-03-06T14:31:54.698Z,13.85
2023-03-06T14:34:23.582Z,11.90
2023-03-06T14:36:52.581Z,9.43
2023-03-06T14:39:36.011Z,11.30
2023-03-06T14:42:19.244Z,13.93
2023-03-06T14:44:47.167Z,15.48
2023-03-06T14:47:29.345Z,12.77
2023-03-06T14:50:21.746Z,13.30
2023-03-06T14:52:50.299Z,14.55
2023-03-06T14:55:25.548Z,14.68
2023-03-06T14:58:17.876Z,13.43
2023-03-06T15:00:49.381Z,15.00
2023-03-06T15:03:26.754Z,13.48
2023-03-06T15:05:54.861Z,11.82
2023-03-06T15:08:26.659Z,12.77
2023-03-06T15:13:29.032Z,12.32
2023-03-06T15:16:24.681Z,13.57
2023-03-06T15:19:02.482Z,13.30
2023-03-06T15:21:37.962Z,15.27
2023-03-06T15:24:32.009Z,15.50
2023-03-06T15:27:04.404Z,14.27
2023-03-06T15:29:31.120Z,14.65
2023-03-06T15:32:30.463Z,16.60
2023-03-06T15:35:25.307Z,16.23
2023-03-06T15:37:52.272Z,16.48
2023-03-06T15:40:23.998Z,16.95
2023-03-06T15:45:22.457Z,13.93
2023-03-06T15:50:19.447Z,15.15
2023-03-06T15:52:47.233Z,15.52
2023-03-06T15:55:15.715Z,15.48
2023-03-06T15:57:50.668Z,14.55
2023-03-06T16:00:28.315Z,15.73
2023-03-06T16:02:58.821Z,13.23
2023-03-06T16:05:27.082Z,17.80
2023-03-06T16:07:54.056Z,15.60
2023-03-06T16:10:27.285Z,13.25
2023-03-06T16:12:56.737Z,15.25
2023-03-06T16:15:28.862Z,16.27
2023-03-06T16:17:56.852Z,15.95
2023-03-06T16:20:25.545Z,19.33
2023-03-06T16:22:55.257Z,15.60
2023-03-06T16:25:24.069Z,16.40
2023-03-06T16:27:59.483Z,15.35
2023-03-06T16:30:28.948Z,19.08
2023-03-06T16:32:55.615Z,18.05
2023-03-06T16:35:22.231Z,17.45
2023-03-06T16:37:49.006Z,16.20
2023-03-06T16:40:25.766Z,14.38
2023-03-06T16:42:54.062Z,14.15
2023-03-06T16:45:22.579Z,19.75
2023-03-06T16:47:49.619Z,14.93
2023-03-06T16:50:28.645Z,14.40
2023-03-06T16:52:56.408Z,15.30
2023-03-06T16:55:25.095Z,12.15
2023-03-06T16:57:52.230Z,14.45
2023-03-06T17:00:20.132Z,13.98
2023-03-06T17:02:50.418Z,11.98
2023-03-06T17:05:17.846Z,15.60
2023-03-06T17:07:44.710Z,12.75
2023-03-06T17:10:14.670Z,17.45
2023-03-06T17:12:41.964Z,13.57
2023-03-06T17:15:09.857Z,17.25
2023-03-06T17:17:37.036Z,16.30
2023-03-06T17:20:04.801Z,16.25
2023-03-06T17:22:35.813Z,15.90
2023-03-06T17:25:05.022Z,14.85
2023-03-06T17:27:31.621Z,18.25
2023-03-06T17:29:58.846Z,17.33
2023-03-06T17:32:26.769Z,18.85
2023-03-06T17:34:53.924Z,18.95
2023-03-06T17:37:20.924Z,16.13
2023-03-06T17:39:47.751Z,13.80
2023-03-06T17:42:14.277Z,15.85
2023-03-06T17:44:41.244Z,16.88
2023-03-06T17:47:07.794Z,15.73
2023-03-06T17:49:34.450Z,14.05
2023-03-06T17:52:02.805Z,15.57
2023-03-06T17:54:30.168Z,14.13
2023-03-06T17:57:01.016Z,13.70
2023-03-06T17:59:28.132Z,12.53
2023-03-06T18:01:58.523Z,13.80
2023-03-06T18:04:25.574Z,14.13
2023-03-06T18:06:52.451Z,12.73
2023-03-06T18:09:19.232Z,12.02
2023-03-06T18:11:45.770Z,15.57
2023-03-06T18:14:12.317Z,15.55
2023-03-06T18:16:38.904Z,13.57
2023-03-06T18:19:05.488Z,14.93
2023-03-06T18:21:32.035Z,13.00
2023-03-06T18:23:58.828Z,15.15
2023-03-06T18:26:27.893Z,14.13
2023-03-06T18:28:57.017Z,15.88
2023-03-06T18:31:27.543Z,13.75
2023-03-06T18:34:00.572Z,16.77
2023-03-06T18:36:29.957Z,15.60
2023-03-06T18:38:57.369Z,13.02
2023-03-06T18:41:24.236Z,14.07
2023-03-06T18:43:55.197Z,14.93
2023-03-06T18:46:22.241Z,13.85
2023-03-06T18:48:48.849Z,14.57
2023-03-06T18:51:15.884Z,12.05
2023-03-06T18:53:43.536Z,12.02
2023-03-06T18:56:16.657Z,15.38
2023-03-06T18:58:44.214Z,12.07
2023-03-06T19:01:11.670Z,15.25
2023-03-06T19:03:38.424Z,14.65
2023-03-06T19:06:06.838Z,14.38
2023-03-06T19:08:33.835Z,14.95
2023-03-06T19:11:11.787Z,13.68
2023-03-06T19:13:38.379Z,15.40
2023-03-06T19:16:05.770Z,11.77
2023-03-06T19:18:32.665Z,13.00
2023-03-06T19:21:17.492Z,17.58
2023-03-06T19:23:44.564Z,17.98
2023-03-06T19:26:11.858Z,18.48
2023-03-06T19:28:40.024Z,16.23
2023-03-06T19:31:15.819Z,20.48
2023-03-06T19:33:43.022Z,17.30
2023-03-06T19:36:12.303Z,22.15
2023-03-06T19:38:38.945Z,21.30
2023-03-06T19:41:06.280Z,18.92
2023-03-06T19:43:33.111Z,20.73
2023-03-06T19:46:00.907Z,21.27
2023-03-06T19:48:27.546Z,21.45
2023-03-06T19:50:54.061Z,19.17
2023-03-06T19:53:21.666Z,20.58
2023-03-06T19:55:50.950Z,21.33
2023-03-06T19:58:17.756Z,19.88
2023-03-06T20:00:44.346Z,17.33
2023-03-06T20:03:10.869Z,20.38
2023-03-06T20:05:37.427Z,21.67
2023-03-06T20:08:04.035Z,15.43
2023-03-06T20:10:30.814Z,19.27
2023-03-06T20:12:57.411Z,16.77
2023-03-06T20:15:24.000Z,16.25
2023-03-06T20:17:50.506Z,14.82
2023-03-06T20:20:20.160Z,17.63
2023-03-06T20:22:46.738Z,18.00
2023-03-06T20:25:13.294Z,17.75
2023-03-06T20:27:39.876Z,14.60
2023-03-06T20:30:08.079Z,13.50
2023-03-06T20:32:34.866Z,16.67
2023-03-06T20:35:04.037Z,15.98
2023-03-06T20:37:30.658Z,15.32
2023-03-06T20:39:57.337Z,15.80
2023-03-06T20:42:23.875Z,18.33
2023-03-06T20:44:50.425Z,11.55
2023-03-06T20:47:17.051Z,13.50
2023-03-06T20:49:43.590Z,11.88
2023-03-06T20:52:12.305Z,14.18
2023-03-06T20:54:38.861Z,11.95
2023-03-06T20:57:05.456Z,15.77
2023-03-06T20:59:32.328Z,16.95
2023-03-06T21:01:58.935Z,12.98
2023-03-06T21:04:25.568Z,15.02
2023-03-06T21:06:53.425Z,11.80
2023-03-06T21:09:20.010Z,14.70
2023-03-06T21:11:46.822Z,12.75
2023-03-06T21:14:14.310Z,15.82
2023-03-06T21:16:41.309Z,13.63
2023-03-06T21:19:07.875Z,11.93
2023-03-06T21:21:35.109Z,12.00
2023-03-06T21:24:02.333Z,13.63
2023-03-06T21:26:33.536Z,15.50
2023-03-06T21:29:00.986Z,17.85
2023-03-06T21:31:28.443Z,15.88
2023-03-06T21:33:55.788Z,15.88
2023-03-06T21:36:22.883Z,17.40
2023-03-06T21:38:50.710Z,14.77
2023-03-06T21:41:24.705Z,15.45
2023-03-06T21:44:02.253Z,13.93
2023-03-06T21:46:29.681Z,14.45
2023-03-06T21:48:56.981Z,12.00
2023-03-06T21:51:24.959Z,14.90
2023-03-06T21:53:52.877Z,13.82
2023-03-06T21:56:22.072Z,12.27
2023-03-06T21:58:48.619Z,13.75
2023-03-06T22:01:23.372Z,13.00
2023-03-06T22:03:50.258Z,15.75
2023-03-06T22:06:20.391Z,11.75
2023-03-06T22:08:47.361Z,12.77
2023-03-06T22:11:16.276Z,13.65
2023-03-06T22:13:45.041Z,13.75
2023-03-06T22:16:11.691Z,16.25
2023-03-06T22:18:38.393Z,12.13
2023-03-06T22:21:12.312Z,14.77
2023-03-06T22:23:40.454Z,11.45
2023-03-06T22:26:12.870Z,10.00
2023-03-06T22:28:40.274Z,13.10
2023-03-06T22:31:16.009Z,12.35
2023-03-06T22:33:42.911Z,10.90
2023-03-06T22:36:15.099Z,12.55
2023-03-06T22:38:43.957Z,14.05
2023-03-06T22:41:11.534Z,11.90
2023-03-06T22:43:38.323Z,13.63
2023-03-06T22:46:07.661Z,13.85
2023-03-06T22:48:34.254Z,13.15
2023-03-06T22:51:12.857Z,12.75
2023-03-06T22:53:39.829Z,17.00
2023-03-06T22:56:08.295Z,12.27
2023-03-06T22:58:37.109Z,14.23
2023-03-06T23:01:16.095Z,14.60
2023-03-06T23:03:45.132Z,13.23
2023-03-06T23:06:14.264Z,11.35
2023-03-06T23:08:42.078Z,15.68
2023-03-06T23:11:10.539Z,14.65
2023-03-06T23:13:59.474Z,16.48
2023-03-06T23:16:44.742Z,13.35
2023-03-06T23:19:30.625Z,12.27
2023-03-06T23:22:15.900Z,13.52
2023-03-06T23:25:01.103Z,13.90
2023-03-06T23:27:29.147Z,15.35
2023-03-06T23:29:58.807Z,12.98
2023-03-06T23:32:25.427Z,13.30
2023-03-06T23:34:52.120Z,12.50
2023-03-06T23:37:18.691Z,13.07
2023-03-06T23:39:45.938Z,13.18
2023-03-06T23:42:12.485Z,15.27
2023-03-06T23:44:39.055Z,11.70
2023-03-06T23:47:05.646Z,12.63
2023-03-06T23:49:32.223Z,11.35
2023-03-06T23:51:59.175Z,12.13
2023-03-06T23:54:25.828Z,14.18
2023-03-06T23:56:52.361Z,11.65
2023-03-06T23:59:18.928Z,13.32
